Time;durP1;ratioP1;P1;durP2;ratioP2;P2;SDS_P1;SDS_P2;PMS_P1;PMS_P2;Temp;Humidity;BMP_temperature;BMP_pressure;BME280_temperature;BME280_humidity;BME280_pressure;Samples;Min_cycle;Max_cycle;Signal;HPM_P1;HPM_P2
2023/06/25 00:00:04;;;;;;;10.98;5.43;;;;;;;21.10;69.53;95026.69;5064455;28;20111;-85
2023/06/25 00:02:29;;;;;;;11.52;5.40;;;;;;;21.01;69.41;95012.97;5068223;28;20020;-85
2023/06/25 00:04:55;;;;;;;9.75;5.47;;;;;;;21.06;69.55;95026.19;5069468;28;20052;-85
2023/06/25 00:07:20;;;;;;;9.27;5.25;;;;;;;21.06;69.57;95026.19;5070096;28;20029;-85
2023/06/25 00:09:53;;;;;;;6.85;4.90;;;;;;;21.05;69.00;95025.44;5068034;28;20055;-84
2023/06/25 00:12:19;;;;;;;7.68;5.47;;;;;;;21.08;68.77;95024.41;5068430;28;20060;-85
2023/06/25 00:14:44;;;;;;;10.13;4.78;;;;;;;21.05;68.37;95022.63;5069695;28;20081;-86
2023/06/25 00:17:09;;;;;;;7.03;4.72;;;;;;;21.07;68.10;95027.72;5070131;28;20527;-85
2023/06/25 00:19:35;;;;;;;8.68;4.88;;;;;;;21.03;67.83;95027.19;5069578;28;20028;-86
2023/06/25 00:22:00;;;;;;;10.40;5.07;;;;;;;21.00;68.48;95028.22;5069318;28;20099;-86
2023/06/25 00:24:26;;;;;;;7.45;5.07;;;;;;;21.00;68.33;95039.38;5068793;28;20020;-87
2023/06/25 00:26:51;;;;;;;9.90;5.32;;;;;;;21.00;68.87;95031.00;5069302;28;20035;-86
2023/06/25 00:29:16;;;;;;;7.05;4.95;;;;;;;20.96;68.62;95022.84;5069585;28;20024;-86
2023/06/25 00:31:42;;;;;;;9.57;5.03;;;;;;;21.01;68.35;95027.69;5067683;28;20398;-85
2023/06/25 00:34:07;;;;;;;7.15;4.95;;;;;;;20.95;68.45;95022.09;5069869;28;20032;-85
2023/06/25 00:36:36;;;;;;;8.68;5.07;;;;;;;20.97;68.62;95023.63;5069120;28;20486;-85
2023/06/25 00:39:03;;;;;;;9.98;4.55;;;;;;;20.98;68.56;95030.72;5069029;28;20051;-86
2023/06/25 00:41:28;;;;;;;9.55;5.63;;;;;;;20.95;68.12;95024.88;5069981;28;20025;-86
2023/06/25 00:43:54;;;;;;;12.05;5.18;;;;;;;20.97;67.69;95026.41;5067397;28;20090;-86
2023/06/25 00:46:23;;;;;;;8.77;5.18;;;;;;;20.90;68.14;95017.25;5068308;28;20024;-87
2023/06/25 00:48:49;;;;;;;7.10;4.85;;;;;;;20.86;68.51;95013.91;5051160;28;20074;-86
2023/06/25 00:51:16;;;;;;;6.50;4.50;;;;;;;20.91;68.42;95015.22;5068992;28;20094;-85
2023/06/25 00:53:41;;;;;;;6.75;4.82;;;;;;;20.89;69.32;95012.16;5067573;28;20017;-84
2023/06/25 00:56:07;;;;;;;7.10;5.10;;;;;;;20.88;69.52;95014.19;5068589;28;20059;-84
2023/06/25 00:58:37;;;;;;;10.52;5.20;;;;;;;20.89;69.51;95017.75;5069075;28;20107;-86
2023/06/25 01:01:11;;;;;;;10.10;5.00;;;;;;;20.84;69.66;95015.69;5069468;28;20158;-87
2023/06/25 01:03:54;;;;;;;7.85;5.20;;;;;;;20.84;69.29;95019.25;5068352;28;20029;-87
2023/06/25 01:06:29;;;;;;;;;;;;;;;20.89;68.82;95020.56;5068319;28;20052;-88
2023/06/25 01:08:59;;;;;;;10.80;5.40;;;;;;;20.87;68.38;95014.69;5068198;28;19975;-87
2023/06/25 01:11:24;;;;;;;8.27;4.80;;;;;;;20.82;68.43;95026.63;5068980;28;20115;-87
2023/06/25 01:13:50;;;;;;;9.13;5.15;;;;;;;20.58;68.78;95015.84;5068709;28;20532;-87
2023/06/25 01:16:15;;;;;;;6.47;4.70;;;;;;;20.64;69.27;95036.19;5069208;28;20044;-86
2023/06/25 01:18:41;;;;;;;9.98;4.97;;;;;;;20.54;69.07;95026.50;5068264;28;20036;-85
2023/06/25 01:21:09;;;;;;;8.68;4.88;;;;;;;20.65;68.21;95043.31;5067407;28;20020;-86
2023/06/25 01:23:35;;;;;;;10.00;5.03;;;;;;;;;;5049965;28;20029;-85
2023/06/25 01:26:00;;;;;;;10.18;4.72;;;;;;;20.61;68.69;95053.94;5068495;28;20024;-84
2023/06/25 01:28:25;;;;;;;10.02;5.10;;;;;;;20.61;68.15;95048.38;5068209;28;20615;-84
2023/06/25 01:30:52;;;;;;;10.90;5.25;;;;;;;20.61;68.42;95048.38;5068023;28;20041;-84
2023/06/25 01:33:25;;;;;;;9.07;4.15;;;;;;;20.57;68.42;95037.41;5068515;28;20024;-83
2023/06/25 01:35:54;;;;;;;8.85;4.72;;;;;;;20.55;68.03;95042.75;5066073;28;20119;-86
2023/06/25 01:38:20;;;;;;;11.18;5.30;;;;;;;20.49;68.17;95041.97;5068359;28;20035;-82
2023/06/25 01:40:45;;;;;;;13.18;5.40;;;;;;;20.52;69.43;95051.34;5066457;28;20025;-83
2023/06/25 01:43:11;;;;;;;8.65;4.82;;;;;;;20.48;69.91;95050.84;5068279;28;20024;-83
2023/06/25 01:45:36;;;;;;;14.13;5.50;;;;;;;20.43;69.75;95049.50;5067765;28;20032;-83
2023/06/25 01:48:02;;;;;;;11.55;5.85;;;;;;;20.35;69.17;95059.59;5067691;28;20033;-82
2023/06/25 01:50:27;;;;;;;10.90;5.30;;;;;;;20.26;70.60;95052.19;5067844;28;20059;-83
2023/06/25 01:52:53;;;;;;;10.65;5.20;;;;;;;20.20;70.42;95056.97;5067212;28;20098;-83
2023/06/25 01:55:18;;;;;;;10.52;5.45;;;;;;;20.08;70.84;95058.94;5067888;28;20305;-84
2023/06/25 01:57:44;;;;;;;11.73;5.40;;;;;;;20.05;70.48;95061.94;5067630;28;20031;-82
2023/06/25 02:00:11;;;;;;;10.30;4.97;;;;;;;20.01;71.98;95070.53;5066518;28;20103;-84
2023/06/25 02:02:36;;;;;;;10.02;5.28;;;;;;;19.81;70.87;95071.41;5067074;28;20146;-82
2023/06/25 02:05:02;;;;;;;10.40;5.57;;;;;;;19.75;71.68;95064.25;5066297;28;20803;-83
2023/06/25 02:07:28;;;;;;;12.38;5.90;;;;;;;19.79;71.99;95054.41;5066289;28;20461;-83
2023/06/25 02:09:53;;;;;;;11.10;6.90;;;;;;;19.78;71.81;95047.28;5067027;28;20024;-83
2023/06/25 02:12:19;;;;;;;14.25;6.45;;;;;;;19.86;72.04;95053.94;5067805;28;20441;-84
2023/06/25 02:14:44;;;;;;;12.30;6.25;;;;;;;19.79;72.74;95056.44;5067136;28;20104;-83
2023/06/25 02:17:09;;;;;;;11.98;7.40;;;;;;;19.84;72.63;95061.25;5049737;28;20107;-83
2023/06/25 02:19:35;;;;;;;11.52;6.88;;;;;;;19.85;72.33;95051.66;5067010;28;20020;-84
2023/06/25 02:22:00;;;;;;;13.23;7.45;;;;;;;19.84;72.41;95064.06;5066207;28;20024;-83
2023/06/25 02:24:26;;;;;;;13.70;7.97;;;;;;;19.87;72.47;95054.72;5066527;28;20025;-84
2023/06/25 02:26:51;;;;;;;12.88;7.40;;;;;;;19.65;71.96;95060.84;5067156;28;20226;-84
2023/06/25 02:29:17;;;;;;;15.10;6.65;;;;;;;19.55;73.12;95051.09;5065950;28;20036;-83
2023/06/25 02:31:42;;;;;;;12.65;6.80;;;;;;;19.55;72.98;95042.72;5066776;28;20056;-83
2023/06/25 02:34:08;;;;;;;12.00;7.47;;;;;;;19.56;72.79;95058.22;5066123;28;20028;-83
2023/06/25 02:36:33;;;;;;;10.68;7.90;;;;;;;19.54;73.19;95058.69;5066374;28;20028;-83
2023/06/25 02:38:58;;;;;;;13.70;6.90;;;;;;;19.58;73.71;95062.06;5066029;28;20103;-84
2023/06/25 02:41:24;;;;;;;14.20;7.32;;;;;;;19.60;73.56;95053.97;5066454;28;20025;-83
2023/06/25 02:43:49;;;;;;;10.88;7.05;;;;;;;19.66;73.55;95048.44;5066944;28;20055;-84
2023/06/25 02:46:14;;;;;;;12.68;7.13;;;;;;;19.69;73.03;95041.13;5067063;28;20059;-86
2023/06/25 02:48:42;;;;;;;15.07;8.07;;;;;;;19.64;73.33;95050.97;5066565;28;20040;-88
2023/06/25 02:51:09;;;;;;;12.75;7.68;;;;;;;19.68;72.96;95059.13;5066898;28;20035;-87
2023/06/25 02:53:34;;;;;;;10.95;8.05;;;;;;;19.79;72.92;95064.78;5065418;28;20024;-88
2023/06/25 02:55:59;;;;;;;10.32;7.53;;;;;;;19.75;72.89;95072.63;5067403;28;20408;-87
2023/06/25 02:58:25;;;;;;;12.63;7.63;;;;;;;19.77;72.88;95070.84;5067124;28;20162;-88
2023/06/25 03:00:50;;;;;;;12.85;7.45;;;;;;;19.77;72.32;95061.72;5067219;28;20426;-87
2023/06/25 03:03:16;;;;;;;13.82;7.65;;;;;;;19.79;72.01;95050.84;5065378;28;20100;-87
2023/06/25 03:05:41;;;;;;;11.68;6.93;;;;;;;19.80;72.78;95046.78;5066767;28;20120;-87
2023/06/25 03:08:07;;;;;;;11.38;7.40;;;;;;;19.80;72.70;95055.16;5065814;28;20374;-87
2023/06/25 03:10:33;;;;;;;13.50;7.43;;;;;;;19.80;72.75;95061.50;5064501;28;20446;-86
2023/06/25 03:12:59;;;;;;;12.45;8.32;;;;;;;19.80;72.50;95050.34;5067048;28;20052;-86
2023/06/25 03:15:24;;;;;;;13.93;7.82;;;;;;;19.75;72.30;95044.72;5065114;28;20056;-85
2023/06/25 03:17:50;;;;;;;13.45;7.80;;;;;;;19.82;72.78;95047.81;5065893;28;20023;-85
2023/06/25 03:20:15;;;;;;;13.13;7.72;;;;;;;19.84;72.86;95058.47;5064948;28;20514;-87
2023/06/25 03:22:41;;;;;;;12.15;8.23;;;;;;;19.81;72.87;95051.09;5048098;28;20048;-81
2023/06/25 03:25:07;;;;;;;12.18;8.18;;;;;;;19.86;72.83;95062.31;5066503;28;20147;-81
2023/06/25 03:27:35;;;;;;;12.40;8.02;;;;;;;19.89;73.03;95058.53;5065505;28;20047;-84
2023/06/25 03:30:02;;;;;;;11.70;8.32;;;;;;;19.87;72.92;95052.69;5048721;28;20537;-84
2023/06/25 03:32:27;;;;;;;11.63;7.60;;;;;;;19.89;72.59;95044.56;5064029;28;20498;-83
2023/06/25 03:34:55;;;;;;;14.10;8.40;;;;;;;19.92;73.02;95036.50;5065028;28;20100;-83
2023/06/25 03:37:21;;;;;;;14.52;8.50;;;;;;;19.93;72.43;95038.78;5064016;28;20062;-82
2023/06/25 03:39:46;;;;;;;12.45;8.23;;;;;;;19.95;72.74;95039.03;5066132;28;20394;-82
2023/06/25 03:42:12;;;;;;;11.55;8.48;;;;;;;19.94;72.70;95037.50;5064733;28;20024;-82
2023/06/25 03:44:39;;;;;;;13.75;8.63;;;;;;;19.95;72.86;95043.84;5065350;28;20103;-82
2023/06/25 03:47:04;;;;;;;14.10;8.40;;;;;;;19.98;73.32;95042.88;5065111;28;20031;-82
2023/06/25 03:49:29;;;;;;;10.32;7.70;;;;;;;20.00;73.02;95034.75;5064964;28;20028;-80
2023/06/25 03:51:55;;;;;;;13.57;8.38;;;;;;;20.01;73.62;95034.25;5066246;28;20418;-81
2023/06/25 03:54:20;;;;;;;14.02;7.88;;;;;;;19.93;73.65;95024.81;5063567;28;20031;-81
2023/06/25 03:56:46;;;;;;;14.52;8.52;;;;;;;19.99;73.39;95022.06;5065941;28;20021;-81
2023/06/25 03:59:11;;;;;;;11.43;7.90;;;;;;;19.98;73.95;95018.53;5064147;28;20093;-81
2023/06/25 04:01:36;;;;;;;12.57;9.20;;;;;;;20.03;73.89;95014.25;5065090;28;20033;-81
2023/06/25 04:04:02;;;;;;;13.45;8.55;;;;;;;20.00;73.53;95018.78;5065934;28;20100;-81
2023/06/25 04:06:27;;;;;;;12.18;8.52;;;;;;;19.95;73.45;95010.38;5064872;28;20482;-81
2023/06/25 04:08:52;;;;;;;14.05;7.72;;;;;;;19.94;73.03;95006.06;5066129;28;20029;-81
2023/06/25 04:11:18;;;;;;;12.18;7.60;;;;;;;19.87;72.43;94994.09;5063487;28;20081;-82
2023/06/25 04:13:43;;;;;;;12.45;8.35;;;;;;;19.77;72.71;94984.38;5065830;28;20039;-81
2023/06/25 04:16:09;;;;;;;14.15;8.27;;;;;;;19.69;72.70;94974.19;5064196;28;20027;-83
2023/06/25 04:18:37;;;;;;;12.57;7.72;;;;;;;19.70;72.98;94979.28;5064199;28;20079;-81
2023/06/25 04:21:03;;;;;;;12.48;8.13;;;;;;;19.63;72.90;94972.13;5064536;28;20064;-81
2023/06/25 04:23:28;;;;;;;13.90;8.35;;;;;;;19.68;73.63;94984.59;5063573;28;20056;-81
2023/06/25 04:25:54;;;;;;;12.40;8.30;;;;;;;19.70;74.17;94996.00;5065968;28;20029;-81
2023/06/25 04:28:19;;;;;;;13.18;8.43;;;;;;;19.74;74.04;94998.56;5064816;28;20041;-81
2023/06/25 04:30:44;;;;;;;11.90;8.45;;;;;;;19.72;74.20;94987.13;5065863;28;20098;-82
2023/06/25 04:33:10;;;;;;;13.65;8.18;;;;;;;19.81;73.90;94998.88;5063654;28;20773;-82
2023/06/25 04:35:36;;;;;;;15.15;8.55;;;;;;;19.83;74.01;94992.78;5064102;28;20032;-81
2023/06/25 04:38:01;;;;;;;13.50;8.73;;;;;;;19.87;73.95;94991.31;5065234;28;20028;-82
2023/06/25 04:40:26;;;;;;;12.70;8.45;;;;;;;19.91;74.08;95001.50;5063620;28;20177;-82
2023/06/25 04:42:52;;;;;;;13.77;8.57;;;;;;;19.97;73.67;94993.91;5047461;28;20050;-79
2023/06/25 04:45:18;;;;;;;11.73;8.50;;;;;;;20.00;73.86;95010.41;5063619;28;20048;-80
2023/06/25 04:47:43;;;;;;;17.08;8.65;;;;;;;20.01;72.17;95014.72;5066424;28;20017;-80
2023/06/25 04:50:09;;;;;;;13.52;8.10;;;;;;;19.91;72.73;95026.59;5068121;28;20027;-79
2023/06/25 04:52:35;;;;;;;12.32;8.32;;;;;;;19.84;72.73;95020.22;5068976;28;20041;-78
2023/06/25 04:55:00;;;;;;;14.10;8.50;;;;;;;19.83;73.20;95015.88;5068286;28;20086;-78
2023/06/25 04:57:26;;;;;;;14.07;8.52;;;;;;;19.87;73.10;95010.06;5068588;28;20028;-79
2023/06/25 04:59:51;;;;;;;12.23;8.20;;;;;;;19.79;73.24;94998.63;5068737;28;20044;-78
2023/06/25 05:02:17;;;;;;;13.05;8.35;;;;;;;19.91;73.47;95012.66;5068239;28;20406;-78
2023/06/25 05:04:42;;;;;;;12.10;7.93;;;;;;;19.86;73.08;95003.72;5066960;28;20035;-78
2023/06/25 05:07:07;;;;;;;12.07;7.80;;;;;;;19.82;73.36;95000.41;5068072;28;20025;-78
2023/06/25 05:09:33;;;;;;;14.85;9.13;;;;;;;19.87;73.57;95004.50;5068806;28;20035;-77
2023/06/25 05:11:58;;;;;;;13.10;8.63;;;;;;;19.91;73.79;95004.28;5067969;28;20549;-78
2023/06/25 05:14:24;;;;;;;16.75;8.90;;;;;;;20.02;74.12;95004.34;5050250;28;20074;-78
2023/06/25 05:16:50;;;;;;;14.23;8.15;;;;;;;19.98;73.14;95001.03;5068218;28;20032;-78
2023/06/25 05:19:15;;;;;;;11.13;8.40;;;;;;;19.97;73.31;95005.09;5068169;28;20513;-78
2023/06/25 05:21:41;;;;;;;13.38;8.45;;;;;;;19.96;73.06;95000.75;5067076;28;20051;-77
2023/06/25 05:24:06;;;;;;;14.35;8.93;;;;;;;19.99;73.12;95000.53;5067883;28;20445;-77
2023/06/25 05:26:32;;;;;;;15.15;9.15;;;;;;;20.02;73.59;95007.16;5068655;28;20032;-78
2023/06/25 05:28:57;;;;;;;14.70;8.57;;;;;;;20.12;73.93;94998.06;5067711;28;20029;-78
2023/06/25 05:31:23;;;;;;;13.25;7.57;;;;;;;20.20;72.54;95005.97;5068195;28;20029;-78
2023/06/25 05:33:48;;;;;;;14.93;8.25;;;;;;;20.16;71.83;95006.97;5066854;28;20421;-77
2023/06/25 05:36:15;;;;;;;11.75;7.82;;;;;;;20.22;71.90;95009.78;5067027;28;20021;-79
2023/06/25 05:38:41;;;;;;;14.23;8.80;;;;;;;20.15;72.02;94996.31;5066675;28;20032;-77
2023/06/25 05:41:06;;;;;;;11.60;7.68;;;;;;;20.24;72.15;94998.13;5067941;28;20070;-77
2023/06/25 05:43:31;;;;;;;15.75;8.40;;;;;;;20.33;71.85;94995.13;5066930;28;20024;-78
2023/06/25 05:45:57;;;;;;;11.05;7.68;;;;;;;20.38;72.13;94986.03;5066014;28;20501;-78
2023/06/25 05:48:22;;;;;;;9.15;6.97;;;;;;;20.46;71.92;94987.09;5067935;28;20025;-78
2023/06/25 05:50:48;;;;;;;12.25;7.72;;;;;;;20.55;71.30;94997.31;5065840;28;20118;-78
2023/06/25 05:53:13;;;;;;;12.63;8.00;;;;;;;20.55;70.71;94994.50;5067844;28;20028;-78
2023/06/25 05:55:39;;;;;;;12.90;9.27;;;;;;;20.54;70.16;94993.75;5067116;28;20471;-78
2023/06/25 05:58:04;;;;;;;12.38;8.82;;;;;;;20.61;70.62;94998.84;5067026;28;20027;-78
2023/06/25 06:00:29;;;;;;;12.18;7.82;;;;;;;20.64;70.58;95005.44;5067635;28;20027;-79
2023/06/25 06:02:55;;;;;;;11.52;6.80;;;;;;;20.69;70.14;95005.47;5066935;28;20029;-77
2023/06/25 06:05:20;;;;;;;9.15;6.00;;;;;;;20.74;69.59;95012.34;5067810;28;20032;-78
2023/06/25 06:07:45;;;;;;;15.77;7.32;;;;;;;20.81;69.76;95013.91;5067068;28;20028;-78
2023/06/25 06:10:14;;;;;;;10.63;7.22;;;;;;;20.88;69.43;95011.41;5067647;28;20028;-78
2023/06/25 06:12:40;;;;;;;12.23;7.57;;;;;;;20.99;69.94;95021.84;5065611;28;20098;-78
2023/06/25 06:15:06;;;;;;;11.88;6.97;;;;;;;21.07;70.11;95013.75;5067551;28;20380;-78
2023/06/25 06:17:31;;;;;;;11.27;7.55;;;;;;;21.15;70.08;95014.75;5067246;28;20526;-78
2023/06/25 06:19:57;;;;;;;12.15;8.32;;;;;;;21.26;70.13;95016.81;5066850;28;20025;-78
2023/06/25 06:22:22;;;;;;;10.70;7.70;;;;;;;21.37;70.07;95023.22;5066488;28;20020;-79
2023/06/25 06:24:48;;;;;;;10.95;7.43;;;;;;;21.43;69.87;95023.22;5066465;28;20519;-79
2023/06/25 06:27:13;;;;;;;10.05;6.47;;;;;;;21.54;69.38;95025.28;5066080;28;20020;-78
2023/06/25 06:29:38;;;;;;;9.43;6.72;;;;;;;21.66;68.75;95024.78;5066099;28;20648;-78
2023/06/25 06:32:04;;;;;;;8.13;6.07;;;;;;;21.74;67.92;95027.84;5066972;28;20585;-78
2023/06/25 06:34:30;;;;;;;6.97;5.13;;;;;;;21.78;67.68;95019.94;5066411;28;20125;-79
2023/06/25 06:36:55;;;;;;;8.05;5.55;;;;;;;21.85;66.79;95018.66;5065253;28;20024;-78
2023/06/25 06:39:21;;;;;;;12.13;6.07;;;;;;;21.88;66.53;95012.84;5065651;28;20348;-78
2023/06/25 06:41:46;;;;;;;8.48;6.18;;;;;;;21.94;66.66;95016.38;5065038;28;20115;-79
2023/06/25 06:44:13;;;;;;;7.70;6.10;;;;;;;21.98;66.58;95016.91;5067740;28;20492;-78
2023/06/25 06:46:39;;;;;;;9.88;6.60;;;;;;;22.03;66.53;95004.19;5064542;28;20055;-78
2023/06/25 06:49:05;;;;;;;8.82;6.25;;;;;;;22.06;66.79;95002.38;5065096;28;20056;-79
2023/06/25 06:51:31;;;;;;;9.82;6.57;;;;;;;22.11;65.82;94999.59;5064481;28;20526;-78
2023/06/25 06:53:56;;;;;;;8.65;7.00;;;;;;;22.18;66.13;95003.91;5064920;28;20028;-81
2023/06/25 06:56:22;;;;;;;8.07;6.70;;;;;;;22.23;65.43;95001.09;5066053;28;20037;-78
2023/06/25 06:58:47;;;;;;;10.02;6.57;;;;;;;22.31;65.35;94998.56;5064389;28;20051;-78
2023/06/25 07:01:13;;;;;;;9.75;6.63;;;;;;;22.39;64.91;94996.75;5066727;28;20324;-79
2023/06/25 07:03:39;;;;;;;10.50;6.82;;;;;;;22.46;64.35;94992.66;5063874;28;20029;-78
2023/06/25 07:06:04;;;;;;;6.90;5.95;;;;;;;22.57;64.32;94991.84;5066450;28;20101;-78
2023/06/25 07:08:29;;;;;;;7.53;6.28;;;;;;;22.65;63.97;94990.03;5066157;28;20024;-80
2023/06/25 07:10:55;;;;;;;8.95;5.82;;;;;;;22.72;63.49;94990.28;5066065;28;20024;-78
2023/06/25 07:13:20;;;;;;;7.22;4.90;;;;;;;22.74;63.91;94982.09;5065886;28;20073;-79
2023/06/25 07:15:46;;;;;;;7.47;5.38;;;;;;;22.76;63.57;94995.59;5065759;28;20029;-79
2023/06/25 07:18:11;;;;;;;8.35;6.00;;;;;;;22.75;63.09;94989.22;5066294;28;20036;-79
2023/06/25 07:20:37;;;;;;;8.52;5.82;;;;;;;22.76;62.61;95001.94;5063738;28;20393;-79
2023/06/25 07:23:02;;;;;;;6.07;4.75;;;;;;;22.76;62.64;94999.16;5066318;28;20017;-79
2023/06/25 07:25:27;;;;;;;7.45;4.72;;;;;;;22.79;62.31;94997.38;5065031;28;20102;-79
2023/06/25 07:27:53;;;;;;;9.05;5.18;;;;;;;22.82;62.27;95004.72;5066232;28;20086;-79
2023/06/25 07:30:18;;;;;;;12.30;5.40;;;;;;;22.82;62.17;95004.72;5063847;28;20032;-80
2023/06/25 07:32:44;;;;;;;7.95;4.72;;;;;;;22.87;62.19;94992.75;5065716;28;20016;-79
2023/06/25 07:35:09;;;;;;;5.75;4.63;;;;;;;22.95;61.99;94998.59;5065814;28;20063;-80
2023/06/25 07:37:35;;;;;;;5.68;4.85;;;;;;;23.00;61.77;94998.56;5065239;28;20449;-80
2023/06/25 07:40:00;;;;;;;5.65;4.30;;;;;;;23.08;61.33;95003.63;5066278;28;20107;-79
2023/06/25 07:42:25;;;;;;;7.70;5.10;;;;;;;23.12;61.42;95004.88;5063838;28;20112;-79
2023/06/25 07:44:51;;;;;;;6.05;4.82;;;;;;;23.10;60.80;94995.44;5066538;28;20060;-78
2023/06/25 07:47:16;;;;;;;5.60;4.10;;;;;;;23.20;60.01;94996.69;5063955;28;20021;-79
2023/06/25 07:49:42;;;;;;;5.10;4.00;;;;;;;23.23;59.91;94999.22;5065552;28;20070;-79
2023/06/25 07:52:08;;;;;;;6.20;4.20;;;;;;;23.32;60.05;95003.72;5065414;28;20060;-78
2023/06/25 07:54:33;;;;;;;6.03;4.22;;;;;;;23.41;59.63;95002.66;5063620;28;20041;-80
2023/06/25 07:56:58;;;;;;;7.05;3.80;;;;;;;23.53;58.82;95001.31;5065810;28;20060;-79
2023/06/25 07:59:24;;;;;;;5.82;3.95;;;;;;;23.59;59.26;94997.19;5064957;28;20026;-80
2023/06/25 08:01:49;;;;;;;8.43;4.10;;;;;;;23.67;59.06;94988.97;5066175;28;20473;-79
2023/06/25 08:04:15;;;;;;;5.53;3.70;;;;;;;23.76;57.93;94994.28;5063789;28;20031;-78
2023/06/25 08:06:40;;;;;;;5.28;3.40;;;;;;;23.81;57.78;94990.66;5065583;28;20059;-79
2023/06/25 08:09:05;;;;;;;4.43;3.35;;;;;;;23.86;57.43;94986.28;5065152;28;20021;-79
2023/06/25 08:11:31;;;;;;;5.38;3.75;;;;;;;23.94;57.58;94992.84;5064036;28;20443;-79
2023/06/25 08:13:57;;;;;;;4.80;3.35;;;;;;;24.01;56.74;94991.50;5047717;28;20082;-78
2023/06/25 08:16:22;;;;;;;6.35;3.92;;;;;;;24.03;56.75;94992.50;5064063;28;20038;-78
2023/06/25 08:18:48;;;;;;;5.15;3.20;;;;;;;24.18;55.72;94982.91;5066263;28;20101;-78
2023/06/25 08:21:14;;;;;;;4.97;3.42;;;;;;;24.19;55.83;94987.25;5063564;28;20028;-79
2023/06/25 08:23:40;;;;;;;4.25;3.42;;;;;;;24.27;56.91;94985.38;5069498;28;20029;-79
2023/06/25 08:26:05;;;;;;;6.03;3.08;;;;;;;24.33;56.29;94988.91;5067605;28;20024;-79
2023/06/25 08:28:31;;;;;;;4.68;3.03;;;;;;;24.47;54.98;94986.97;5067870;28;20024;-79
2023/06/25 08:30:56;;;;;;;4.13;2.97;;;;;;;24.58;55.03;94984.81;5068767;28;20033;-79
2023/06/25 08:33:21;;;;;;;3.83;3.05;;;;;;;24.71;54.91;94983.38;5067835;28;20467;-80
2023/06/25 08:35:47;;;;;;;4.55;3.67;;;;;;;24.80;54.25;94975.34;5069383;28;20021;-79
2023/06/25 08:38:17;;;;;;;5.30;3.30;;;;;;;24.88;53.08;94981.88;5068695;28;20020;-80
2023/06/25 08:40:45;;;;;;;3.65;2.83;;;;;;;25.00;53.35;94982.50;5068131;28;20105;-80
2023/06/25 08:43:10;;;;;;;4.28;3.50;;;;;;;25.12;52.97;94975.47;5068407;28;20177;-79
2023/06/25 08:45:36;;;;;;;4.43;3.30;;;;;;;25.18;52.75;94972.59;5067556;28;20552;-80
2023/06/25 08:48:03;;;;;;;5.97;3.22;;;;;;;25.29;52.33;94978.06;5068401;28;20025;-78
2023/06/25 08:50:30;;;;;;;4.45;3.53;;;;;;;25.36;51.82;94971.03;5067407;28;20074;-78
2023/06/25 08:52:56;;;;;;;7.10;3.55;;;;;;;25.47;51.41;94975.75;5067600;28;20098;-79
2023/06/25 08:55:24;;;;;;;5.45;4.03;;;;;;;25.50;51.73;94969.78;5066972;28;20412;-81
2023/06/25 08:57:50;;;;;;;4.65;3.60;;;;;;;25.58;51.36;94967.13;5069044;28;20407;-81
2023/06/25 09:00:16;;;;;;;4.55;3.20;;;;;;;25.69;51.01;94969.75;5066915;28;20030;-80
2023/06/25 09:02:42;;;;;;;5.57;3.70;;;;;;;25.72;50.92;94959.47;5067520;28;20025;-81
2023/06/25 09:05:10;;;;;;;6.07;3.63;;;;;;;25.78;50.73;94963.75;5066926;28;20027;-80
2023/06/25 09:07:43;;;;;;;6.45;3.38;;;;;;;25.90;50.98;94969.94;5067229;28;20540;-80
2023/06/25 09:10:09;;;;;;;;;;;;;;;26.02;50.92;94967.69;5067805;28;20059;-81
2023/06/25 09:12:34;;;;;;;6.63;3.17;;;;;;;25.99;50.48;94963.91;5066685;28;19947;-81
2023/06/25 09:15:00;;;;;;;4.75;3.17;;;;;;;25.98;49.88;94965.22;5067705;28;20448;-81
2023/06/25 09:17:25;;;;;;;4.55;3.28;;;;;;;26.08;49.87;94960.66;5067596;28;20406;-81
2023/06/25 09:19:51;;;;;;;5.53;3.47;;;;;;;26.15;49.64;94954.41;5068855;28;20512;-78
2023/06/25 09:22:16;;;;;;;5.72;4.30;;;;;;;26.16;48.77;94953.09;5066371;28;20050;-80
2023/06/25 09:24:43;;;;;;;4.30;3.42;;;;;;;26.21;49.00;94940.22;5067960;28;20457;-80
2023/06/25 09:27:10;;;;;;;4.57;3.85;;;;;;;26.31;49.63;94946.16;5066519;28;20036;-81
2023/06/25 09:29:36;;;;;;;6.65;3.65;;;;;;;26.34;48.61;94945.09;5066508;28;20136;-81
2023/06/25 09:32:09;;;;;;;4.78;4.22;;;;;;;26.35;48.03;94932.53;5067064;28;20036;-81
2023/06/25 09:34:34;;;;;;;4.70;3.60;;;;;;;26.43;48.23;94933.41;5065816;28;20051;-82
2023/06/25 09:37:02;;;;;;;4.97;3.60;;;;;;;26.36;48.06;94914.31;5067298;28;20488;-81
2023/06/25 09:39:29;;;;;;;5.30;3.40;;;;;;;26.62;48.04;94934.06;5066026;28;20058;-82
2023/06/25 09:41:54;;;;;;;4.30;3.10;;;;;;;26.71;47.80;94927.19;5066706;28;20028;-77
2023/06/25 09:44:21;;;;;;;5.78;3.20;;;;;;;26.80;47.76;94923.94;5066633;28;20050;-77
2023/06/25 09:46:48;;;;;;;6.90;3.80;;;;;;;26.85;46.68;94923.06;5067723;28;20108;-77
2023/06/25 09:49:15;;;;;;;7.75;5.00;;;;;;;26.95;47.32;94914.91;5066432;28;20029;-77
2023/06/25 09:51:51;;;;;;;4.63;3.30;;;;;;;27.08;47.14;94920.56;5066898;28;20033;-76
2023/06/25 09:54:18;;;;;;;5.82;3.78;;;;;;;27.22;46.58;94912.78;5050010;28;20017;-76
2023/06/25 09:56:45;;;;;;;11.02;6.65;;;;;;;27.16;45.50;94904.44;5065808;28;20506;-77
2023/06/25 09:59:11;;;;;;;5.40;4.05;;;;;;;27.22;45.36;94913.53;5066419;28;20107;-77
2023/06/25 10:01:37;;;;;;;6.15;3.88;;;;;;;27.34;45.70;94910.47;5065727;28;20031;-79
2023/06/25 10:04:02;;;;;;;7.03;3.67;;;;;;;27.38;45.60;94899.59;5067492;28;20020;-77
2023/06/25 10:06:28;;;;;;;4.72;3.00;;;;;;;27.51;46.05;94910.81;5067453;28;20578;-78
2023/06/25 10:08:54;;;;;;;4.03;2.72;;;;;;;27.65;45.02;94905.88;5067002;28;20024;-78
2023/06/25 10:11:20;;;;;;;5.13;3.53;;;;;;;27.72;44.84;94903.13;5067610;28;20427;-78
2023/06/25 10:13:45;;;;;;;9.85;6.13;;;;;;;27.71;44.06;94909.34;5066421;28;20024;-78
2023/06/25 10:16:17;;;;;;;8.93;5.93;;;;;;;27.84;44.70;94902.84;5066354;28;20033;-78
2023/06/25 10:18:43;;;;;;;4.50;3.50;;;;;;;27.97;43.86;94888.63;5067018;28;20024;-78
2023/06/25 10:21:16;;;;;;;3.85;3.03;;;;;;;28.05;44.31;94887.41;5067532;28;20048;-76
2023/06/25 10:23:42;;;;;;;7.07;5.32;;;;;;;28.20;44.52;94883.13;5067250;28;20025;-80
2023/06/25 10:26:12;;;;;;;9.98;7.85;;;;;;;28.18;44.47;94889.34;5066424;28;20399;-77
2023/06/25 10:28:38;;;;;;;4.97;3.70;;;;;;;28.25;44.05;94882.22;5067590;28;20020;-78
2023/06/25 10:31:13;;;;;;;6.60;4.90;;;;;;;28.35;43.82;94882.50;5066429;28;20032;-78
2023/06/25 10:33:39;;;;;;;5.75;4.10;;;;;;;28.38;43.40;94875.72;5065490;28;20560;-79
2023/06/25 10:36:06;;;;;;;7.07;4.85;;;;;;;28.44;43.33;94873.50;5066622;28;20028;-79
2023/06/25 10:38:32;;;;;;;4.78;3.67;;;;;;;28.53;42.17;94870.16;5064886;28;20025;-78
2023/06/25 10:40:57;;;;;;;5.18;2.92;;;;;;;28.62;42.51;94864.00;5067282;28;20112;-77
2023/06/25 10:43:22;;;;;;;5.05;4.05;;;;;;;28.59;42.66;94873.59;5064988;28;20032;-77
2023/06/25 10:45:55;;;;;;;7.60;3.92;;;;;;;28.46;42.47;94860.34;5066559;28;20125;-77
2023/06/25 10:48:21;;;;;;;;;;;;;;;28.40;42.44;94859.75;5048657;28;20078;-82
2023/06/25 10:50:48;;;;;;;6.78;4.30;;;;;;;28.30;43.23;94856.63;5065548;28;19916;-81
2023/06/25 10:53:15;;;;;;;7.32;4.78;;;;;;;28.37;43.74;94855.19;5064962;28;20032;-81
2023/06/25 10:55:49;;;;;;;8.50;5.32;;;;;;;28.35;43.74;94848.59;5064890;28;20680;-80
2023/06/25 10:58:19;;;;;;;10.07;5.15;;;;;;;28.36;44.39;94845.22;5065486;28;20059;-82
2023/06/25 11:00:45;;;;;;;5.97;4.03;;;;;;;28.40;42.50;94839.19;5064234;28;20471;-82
2023/06/25 11:03:12;;;;;;;5.03;3.60;;;;;;;28.36;42.92;94839.56;5065862;28;20029;-83
2023/06/25 11:05:38;;;;;;;4.85;4.10;;;;;;;28.42;43.24;94830.91;5064375;28;20027;-79
2023/06/25 11:08:04;;;;;;;7.22;4.53;;;;;;;28.47;42.65;94825.09;5065444;28;20028;-86
2023/06/25 11:10:31;;;;;;;5.53;4.00;;;;;;;28.61;42.84;94822.88;5066359;28;20039;-85
2023/06/25 11:12:57;;;;;;;6.03;3.80;;;;;;;28.72;42.04;94816.88;5048333;28;20028;-84
2023/06/25 11:15:22;;;;;;;5.35;3.30;;;;;;;28.83;41.90;94808.06;5065975;28;20025;-85
2023/06/25 11:17:52;;;;;;;7.57;5.82;;;;;;;29.00;41.13;94804.72;5064711;28;20024;-81
2023/06/25 11:20:24;;;;;;;9.27;6.22;;;;;;;29.12;41.64;94805.13;5065403;28;20024;-81
2023/06/25 11:22:50;;;;;;;9.68;6.03;;;;;;;29.24;41.87;94809.09;5065401;28;20027;-81
2023/06/25 11:25:16;;;;;;;5.88;4.53;;;;;;;29.35;41.57;94805.91;5066446;28;20441;-79